sensor_id;sensor_type;location;lat;lon;timestamp;temperature;humidity
7562;DHT22;3822;48.784;9.174;2023-03-20T00:00:42;12.80;93.70
7562;DHT22;3822;48.784;9.174;2023-03-20T00:03:12;12.80;93.70
7562;DHT22;3822;48.784;9.174;2023-03-20T00:05:39;12.80;93.70
7562;DHT22;3822;48.784;9.174;2023-03-20T00:08:05;12.80;93.70
7562;DHT22;3822;48.784;9.174;2023-03-20T00:10:37;12.80;93.60
7562;DHT22;3822;48.784;9.174;2023-03-20T00:13:06;12.80;93.70
7562;DHT22;3822;48.784;9.174;2023-03-20T00:15:37;12.80;93.70
7562;DHT22;3822;48.784;9.174;2023-03-20T00:18:15;12.80;93.70
7562;DHT22;3822;48.784;9.174;2023-03-20T00:20:44;12.80;93.80
7562;DHT22;3822;48.784;9.174;2023-03-20T00:23:11;12.80;93.80
7562;DHT22;3822;48.784;9.174;2023-03-20T00:25:39;12.80;93.90
7562;DHT22;3822;48.784;9.174;2023-03-20T00:28:27;12.80;93.90
7562;DHT22;3822;48.784;9.174;2023-03-20T00:30:55;12.80;94.00
7562;DHT22;3822;48.784;9.174;2023-03-20T00:33:21;12.80;94.00
7562;DHT22;3822;48.784;9.174;2023-03-20T00:35:47;12.80;93.90
7562;DHT22;3822;48.784;9.174;2023-03-20T00:38:14;12.80;93.90
7562;DHT22;3822;48.784;9.174;2023-03-20T00:40:40;12.80;93.90
7562;DHT22;3822;48.784;9.174;2023-03-20T00:43:08;12.80;93.90
7562;DHT22;3822;48.784;9.174;2023-03-20T00:45:35;12.80;93.80
7562;DHT22;3822;48.784;9.174;2023-03-20T00:48:01;12.70;93.70
7562;DHT22;3822;48.784;9.174;2023-03-20T00:50:29;12.70;93.70
7562;DHT22;3822;48.784;9.174;2023-03-20T00:52:56;12.70;93.60
7562;DHT22;3822;48.784;9.174;2023-03-20T00:55:24;12.70;93.70
7562;DHT22;3822;48.784;9.174;2023-03-20T00:57:54;12.70;93.70
7562;DHT22;3822;48.784;9.174;2023-03-20T01:00:23;12.70;93.70
7562;DHT22;3822;48.784;9.174;2023-03-20T01:02:53;12.70;93.60
7562;DHT22;3822;48.784;9.174;2023-03-20T01:05:20;12.70;93.60
7562;DHT22;3822;48.784;9.174;2023-03-20T01:07:47;12.70;93.60
7562;DHT22;3822;48.784;9.174;2023-03-20T01:10:13;12.70;93.50
7562;DHT22;3822;48.784;9.174;2023-03-20T01:12:40;12.70;93.40
7562;DHT22;3822;48.784;9.174;2023-03-20T01:15:20;12.70;93.40
7562;DHT22;3822;48.784;9.174;2023-03-20T01:17:48;12.70;93.30
7562;DHT22;3822;48.784;9.174;2023-03-20T01:20:19;12.70;93.30
7562;DHT22;3822;48.784;9.174;2023-03-20T01:22:48;12.70;93.30
7562;DHT22;3822;48.784;9.174;2023-03-20T01:25:14;12.70;93.30
7562;DHT22;3822;48.784;9.174;2023-03-20T01:27:45;12.60;93.30
7562;DHT22;3822;48.784;9.174;2023-03-20T01:30:21;12.60;93.20
7562;DHT22;3822;48.784;9.174;2023-03-20T01:32:49;12.60;93.20
7562;DHT22;3822;48.784;9.174;2023-03-20T01:35:17;12.60;93.20
7562;DHT22;3822;48.784;9.174;2023-03-20T01:37:46;12.50;93.20
7562;DHT22;3822;48.784;9.174;2023-03-20T01:40:34;12.50;93.20
7562;DHT22;3822;48.784;9.174;2023-03-20T01:43:08;12.50;93.30
7562;DHT22;3822;48.784;9.174;2023-03-20T01:45:39;12.50;93.30
7562;DHT22;3822;48.784;9.174;2023-03-20T01:48:15;12.50;93.20
7562;DHT22;3822;48.784;9.174;2023-03-20T01:50:42;12.40;93.20
7562;DHT22;3822;48.784;9.174;2023-03-20T01:53:11;12.40;93.20
7562;DHT22;3822;48.784;9.174;2023-03-20T01:55:44;12.40;93.20
7562;DHT22;3822;48.784;9.174;2023-03-20T01:58:13;12.50;93.30
7562;DHT22;3822;48.784;9.174;2023-03-20T02:00:42;12.40;93.20
7562;DHT22;3822;48.784;9.174;2023-03-20T02:03:08;12.50;93.30
7562;DHT22;3822;48.784;9.174;2023-03-20T02:05:35;12.40;93.20
7562;DHT22;3822;48.784;9.174;2023-03-20T02:10:42;12.40;93.20
7562;DHT22;3822;48.784;9.174;2023-03-20T02:13:10;12.40;93.20
7562;DHT22;3822;48.784;9.174;2023-03-20T02:15:51;12.40;93.30
7562;DHT22;3822;48.784;9.174;2023-03-20T02:18:20;12.40;93.30
7562;DHT22;3822;48.784;9.174;2023-03-20T02:20:55;12.30;93.10
7562;DHT22;3822;48.784;9.174;2023-03-20T02:23:40;12.30;93.00
7562;DHT22;3822;48.784;9.174;2023-03-20T02:40:20;12.10;93.10
7562;DHT22;3822;48.784;9.174;2023-03-20T02:51:00;12.10;93.10
7562;DHT22;3822;48.784;9.174;2023-03-20T03:01:56;12.00;92.90
7562;DHT22;3822;48.784;9.174;2023-03-20T03:04:26;12.00;92.80
7562;DHT22;3822;48.784;9.174;2023-03-20T03:06:55;12.00;92.70
7562;DHT22;3822;48.784;9.174;2023-03-20T03:10:25;12.00;92.70
7562;DHT22;3822;48.784;9.174;2023-03-20T03:12:40;11.90;92.70
7562;DHT22;3822;48.784;9.174;2023-03-20T03:15:12;12.00;92.70
7562;DHT22;3822;48.784;9.174;2023-03-20T03:17:41;11.90;92.70
7562;DHT22;3822;48.784;9.174;2023-03-20T03:20:12;11.00;92.40
7562;DHT22;3822;48.784;9.174;2023-03-20T03:22:43;12.00;92.90
7562;DHT22;3822;48.784;9.174;2023-03-20T03:25:11;12.00;92.80
7562;DHT22;3822;48.784;9.174;2023-03-20T03:27:38;12.00;92.80
7562;DHT22;3822;48.784;9.174;2023-03-20T03:30:28;12.00;92.80
7562;DHT22;3822;48.784;9.174;2023-03-20T03:36:05;12.00;92.80
7562;DHT22;3822;48.784;9.174;2023-03-20T03:38:42;12.00;92.90
7562;DHT22;3822;48.784;9.174;2023-03-20T03:41:31;11.90;92.80
7562;DHT22;3822;48.784;9.174;2023-03-20T03:46:56;12.00;92.90
7562;DHT22;3822;48.784;9.174;2023-03-20T03:49:26;12.00;92.90
7562;DHT22;3822;48.784;9.174;2023-03-20T03:51:59;12.00;92.80
7562;DHT22;3822;48.784;9.174;2023-03-20T03:56:57;12.00;92.80
7562;DHT22;3822;48.784;9.174;2023-03-20T03:59:29;12.00;92.70
7562;DHT22;3822;48.784;9.174;2023-03-20T04:01:58;12.00;92.70
7562;DHT22;3822;48.784;9.174;2023-03-20T04:04:26;12.00;92.70
7562;DHT22;3822;48.784;9.174;2023-03-20T04:06:53;12.00;92.70
7562;DHT22;3822;48.784;9.174;2023-03-20T04:09:20;12.00;92.70
7562;DHT22;3822;48.784;9.174;2023-03-20T04:11:48;12.00;92.50
7562;DHT22;3822;48.784;9.174;2023-03-20T04:14:15;12.00;92.50
7562;DHT22;3822;48.784;9.174;2023-03-20T04:16:42;12.00;92.40
7562;DHT22;3822;48.784;9.174;2023-03-20T04:19:09;12.00;92.40
7562;DHT22;3822;48.784;9.174;2023-03-20T04:21:35;12.00;92.30
7562;DHT22;3822;48.784;9.174;2023-03-20T04:24:02;12.00;92.30
7562;DHT22;3822;48.784;9.174;2023-03-20T04:26:28;12.00;92.40
7562;DHT22;3822;48.784;9.174;2023-03-20T04:28:55;12.10;92.40
7562;DHT22;3822;48.784;9.174;2023-03-20T04:31:21;12.10;92.40
7562;DHT22;3822;48.784;9.174;2023-03-20T04:33:48;12.10;92.40
7562;DHT22;3822;48.784;9.174;2023-03-20T04:36:14;12.10;92.40
7562;DHT22;3822;48.784;9.174;2023-03-20T04:38:40;12.10;92.40
7562;DHT22;3822;48.784;9.174;2023-03-20T04:41:07;12.10;92.30
7562;DHT22;3822;48.784;9.174;2023-03-20T04:43:33;12.00;92.20
7562;DHT22;3822;48.784;9.174;2023-03-20T04:46:00;12.10;92.20
7562;DHT22;3822;48.784;9.174;2023-03-20T04:48:26;12.10;92.20
7562;DHT22;3822;48.784;9.174;2023-03-20T04:50:53;12.00;92.20
7562;DHT22;3822;48.784;9.174;2023-03-20T04:53:19;12.10;92.30
7562;DHT22;3822;48.784;9.174;2023-03-20T04:55:45;12.10;92.30
7562;DHT22;3822;48.784;9.174;2023-03-20T04:58:13;12.00;92.20
7562;DHT22;3822;48.784;9.174;2023-03-20T05:00:39;12.00;92.30
7562;DHT22;3822;48.784;9.174;2023-03-20T05:03:05;12.10;92.30
7562;DHT22;3822;48.784;9.174;2023-03-20T05:05:32;12.00;92.30
7562;DHT22;3822;48.784;9.174;2023-03-20T05:08:03;12.00;92.30
7562;DHT22;3822;48.784;9.174;2023-03-20T05:10:30;12.00;92.30
7562;DHT22;3822;48.784;9.174;2023-03-20T05:12:57;12.00;92.40
7562;DHT22;3822;48.784;9.174;2023-03-20T05:15:23;12.00;92.50
7562;DHT22;3822;48.784;9.174;2023-03-20T05:17:50;12.00;92.50
7562;DHT22;3822;48.784;9.174;2023-03-20T05:20:16;12.00;92.50
7562;DHT22;3822;48.784;9.174;2023-03-20T05:22:43;12.00;92.60
7562;DHT22;3822;48.784;9.174;2023-03-20T05:25:09;12.00;92.60
7562;DHT22;3822;48.784;9.174;2023-03-20T05:27:35;12.00;92.60
7562;DHT22;3822;48.784;9.174;2023-03-20T05:30:04;12.00;92.60
7562;DHT22;3822;48.784;9.174;2023-03-20T05:32:31;12.00;92.70
7562;DHT22;3822;48.784;9.174;2023-03-20T05:34:58;12.00;92.70
7562;DHT22;3822;48.784;9.174;2023-03-20T05:37:25;12.00;92.70
7562;DHT22;3822;48.784;9.174;2023-03-20T05:39:51;12.00;92.80
7562;DHT22;3822;48.784;9.174;2023-03-20T05:42:18;12.00;92.80
7562;DHT22;3822;48.784;9.174;2023-03-20T05:44:44;12.00;92.80
7562;DHT22;3822;48.784;9.174;2023-03-20T05:47:11;12.00;92.80
7562;DHT22;3822;48.784;9.174;2023-03-20T05:49:37;12.00;92.80
7562;DHT22;3822;48.784;9.174;2023-03-20T05:52:03;12.00;92.80
7562;DHT22;3822;48.784;9.174;2023-03-20T05:54:30;12.00;92.70
7562;DHT22;3822;48.784;9.174;2023-03-20T05:56:56;12.00;92.70
7562;DHT22;3822;48.784;9.174;2023-03-20T05:59:22;12.00;92.70
7562;DHT22;3822;48.784;9.174;2023-03-20T06:01:49;12.00;92.70
7562;DHT22;3822;48.784;9.174;2023-03-20T06:04:15;12.00;92.60
7562;DHT22;3822;48.784;9.174;2023-03-20T06:06:41;12.10;93.00
7562;DHT22;3822;48.784;9.174;2023-03-20T06:09:08;12.10;92.70
7562;DHT22;3822;48.784;9.174;2023-03-20T06:11:34;12.10;92.70
7562;DHT22;3822;48.784;9.174;2023-03-20T06:14:00;12.10;92.70
7562;DHT22;3822;48.784;9.174;2023-03-20T06:16:27;12.10;92.60
7562;DHT22;3822;48.784;9.174;2023-03-20T06:18:53;12.10;92.60
7562;DHT22;3822;48.784;9.174;2023-03-20T06:21:19;12.10;92.60
7562;DHT22;3822;48.784;9.174;2023-03-20T06:23:46;12.10;92.60
7562;DHT22;3822;48.784;9.174;2023-03-20T06:26:12;12.10;92.60
7562;DHT22;3822;48.784;9.174;2023-03-20T06:28:38;12.10;92.50
7562;DHT22;3822;48.784;9.174;2023-03-20T06:31:05;12.10;93.00
7562;DHT22;3822;48.784;9.174;2023-03-20T06:33:31;12.10;92.90
7562;DHT22;3822;48.784;9.174;2023-03-20T06:35:58;12.10;92.80
7562;DHT22;3822;48.784;9.174;2023-03-20T06:38:24;12.20;92.80
7562;DHT22;3822;48.784;9.174;2023-03-20T06:40:50;12.20;92.70
7562;DHT22;3822;48.784;9.174;2023-03-20T06:43:17;12.20;92.60
7562;DHT22;3822;48.784;9.174;2023-03-20T06:45:44;12.20;92.50
7562;DHT22;3822;48.784;9.174;2023-03-20T06:48:10;12.20;92.50
7562;DHT22;3822;48.784;9.174;2023-03-20T06:50:36;12.30;92.80
7562;DHT22;3822;48.784;9.174;2023-03-20T06:53:03;12.30;92.80
7562;DHT22;3822;48.784;9.174;2023-03-20T06:55:29;12.40;92.90
7562;DHT22;3822;48.784;9.174;2023-03-20T06:57:56;12.40;92.90
7562;DHT22;3822;48.784;9.174;2023-03-20T07:00:22;12.50;92.80
7562;DHT22;3822;48.784;9.174;2023-03-20T07:02:48;12.60;92.70
7562;DHT22;3822;48.784;9.174;2023-03-20T07:05:15;12.60;92.50
7562;DHT22;3822;48.784;9.174;2023-03-20T07:07:42;12.60;92.40
7562;DHT22;3822;48.784;9.174;2023-03-20T07:10:08;12.70;92.20
7562;DHT22;3822;48.784;9.174;2023-03-20T07:12:37;11.70;91.80
7562;DHT22;3822;48.784;9.174;2023-03-20T07:15:03;12.70;92.20
7562;DHT22;3822;48.784;9.174;2023-03-20T07:17:30;12.80;92.20
7562;DHT22;3822;48.784;9.174;2023-03-20T07:19:56;12.90;92.20
7562;DHT22;3822;48.784;9.174;2023-03-20T07:22:23;12.90;91.90
7562;DHT22;3822;48.784;9.174;2023-03-20T07:24:51;12.90;91.80
7562;DHT22;3822;48.784;9.174;2023-03-20T07:27:17;12.90;91.80
7562;DHT22;3822;48.784;9.174;2023-03-20T07:29:44;13.00;91.70
7562;DHT22;3822;48.784;9.174;2023-03-20T07:32:11;13.00;91.70
7562;DHT22;3822;48.784;9.174;2023-03-20T07:34:37;13.00;91.60
7562;DHT22;3822;48.784;9.174;2023-03-20T07:37:03;13.00;91.50
7562;DHT22;3822;48.784;9.174;2023-03-20T07:39:30;13.00;91.40
7562;DHT22;3822;48.784;9.174;2023-03-20T07:41:57;13.00;91.40
7562;DHT22;3822;48.784;9.174;2023-03-20T07:44:23;13.00;91.30
7562;DHT22;3822;48.784;9.174;2023-03-20T07:46:49;13.00;91.30
7562;DHT22;3822;48.784;9.174;2023-03-20T07:49:16;13.00;91.30
7562;DHT22;3822;48.784;9.174;2023-03-20T07:51:43;13.00;91.30
7562;DHT22;3822;48.784;9.174;2023-03-20T07:54:10;13.00;91.30
7562;DHT22;3822;48.784;9.174;2023-03-20T07:56:36;13.10;91.70
7562;DHT22;3822;48.784;9.174;2023-03-20T07:59:03;13.10;91.40
7562;DHT22;3822;48.784;9.174;2023-03-20T08:01:29;13.10;91.30
7562;DHT22;3822;48.784;9.174;2023-03-20T08:03:55;13.10;91.20
7562;DHT22;3822;48.784;9.174;2023-03-20T08:06:22;13.10;91.20
7562;DHT22;3822;48.784;9.174;2023-03-20T08:08:48;13.00;91.20
7562;DHT22;3822;48.784;9.174;2023-03-20T08:11:18;13.00;91.10
7562;DHT22;3822;48.784;9.174;2023-03-20T08:13:44;13.00;91.10
7562;DHT22;3822;48.784;9.174;2023-03-20T08:16:11;13.00;91.00
7562;DHT22;3822;48.784;9.174;2023-03-20T08:18:37;13.00;91.00
7562;DHT22;3822;48.784;9.174;2023-03-20T08:21:03;13.00;91.00
7562;DHT22;3822;48.784;9.174;2023-03-20T08:23:30;13.00;91.00
7562;DHT22;3822;48.784;9.174;2023-03-20T08:25:56;13.00;91.00
7562;DHT22;3822;48.784;9.174;2023-03-20T08:28:22;13.00;90.90
7562;DHT22;3822;48.784;9.174;2023-03-20T08:30:49;13.00;91.00
7562;DHT22;3822;48.784;9.174;2023-03-20T08:33:16;13.00;90.80
7562;DHT22;3822;48.784;9.174;2023-03-20T08:35:42;12.90;90.70
7562;DHT22;3822;48.784;9.174;2023-03-20T08:38:12;12.90;90.70
7562;DHT22;3822;48.784;9.174;2023-03-20T08:40:39;12.90;90.80
7562;DHT22;3822;48.784;9.174;2023-03-20T08:43:07;12.90;90.80
7562;DHT22;3822;48.784;9.174;2023-03-20T08:45:36;12.90;90.80
7562;DHT22;3822;48.784;9.174;2023-03-20T08:48:02;12.90;90.80
7562;DHT22;3822;48.784;9.174;2023-03-20T08:50:28;13.00;91.10
7562;DHT22;3822;48.784;9.174;2023-03-20T08:52:55;13.00;90.80
7562;DHT22;3822;48.784;9.174;2023-03-20T08:55:21;13.00;90.80
7562;DHT22;3822;48.784;9.174;2023-03-20T08:57:47;13.10;90.90
7562;DHT22;3822;48.784;9.174;2023-03-20T09:00:14;13.10;90.90
7562;DHT22;3822;48.784;9.174;2023-03-20T09:02:42;13.20;90.90
7562;DHT22;3822;48.784;9.174;2023-03-20T09:05:08;13.20;90.80
7562;DHT22;3822;48.784;9.174;2023-03-20T09:07:35;13.30;90.80
7562;DHT22;3822;48.784;9.174;2023-03-20T09:10:02;13.30;90.60
7562;DHT22;3822;48.784;9.174;2023-03-20T09:12:32;13.40;90.50
7562;DHT22;3822;48.784;9.174;2023-03-20T09:14:59;13.40;90.60
7562;DHT22;3822;48.784;9.174;2023-03-20T09:17:26;13.50;90.40
7562;DHT22;3822;48.784;9.174;2023-03-20T09:19:52;13.50;90.20
7562;DHT22;3822;48.784;9.174;2023-03-20T09:22:19;13.50;90.00
7562;DHT22;3822;48.784;9.174;2023-03-20T09:24:45;13.60;90.10
7562;DHT22;3822;48.784;9.174;2023-03-20T09:27:12;13.60;89.80
7562;DHT22;3822;48.784;9.174;2023-03-20T09:29:39;13.60;89.80
7562;DHT22;3822;48.784;9.174;2023-03-20T09:32:06;13.70;89.70
7562;DHT22;3822;48.784;9.174;2023-03-20T09:34:33;13.70;90.00
7562;DHT22;3822;48.784;9.174;2023-03-20T09:36:59;13.80;89.10
7562;DHT22;3822;48.784;9.174;2023-03-20T09:39:27;13.80;88.70
7562;DHT22;3822;48.784;9.174;2023-03-20T09:41:54;13.80;88.60
7562;DHT22;3822;48.784;9.174;2023-03-20T09:54:48;14.10;87.90
7562;DHT22;3822;48.784;9.174;2023-03-20T09:57:19;14.10;87.50
7562;DHT22;3822;48.784;9.174;2023-03-20T09:59:48;14.20;87.40
7562;DHT22;3822;48.784;9.174;2023-03-20T10:02:24;14.20;87.20
7562;DHT22;3822;48.784;9.174;2023-03-20T10:05:00;14.30;86.80
7562;DHT22;3822;48.784;9.174;2023-03-20T10:07:28;14.30;86.70
7562;DHT22;3822;48.784;9.174;2023-03-20T10:09:54;14.40;86.80
7562;DHT22;3822;48.784;9.174;2023-03-20T10:12:28;14.40;86.60
7562;DHT22;3822;48.784;9.174;2023-03-20T10:20:42;14.60;85.70
7562;DHT22;3822;48.784;9.174;2023-03-20T10:26:40;14.50;85.60
7562;DHT22;3822;48.784;9.174;2023-03-20T10:29:12;14.60;85.60
7562;DHT22;3822;48.784;9.174;2023-03-20T10:37:44;14.60;84.90
7562;DHT22;3822;48.784;9.174;2023-03-20T10:40:36;14.60;84.90
7562;DHT22;3822;48.784;9.174;2023-03-20T10:43:14;14.60;84.80
7562;DHT22;3822;48.784;9.174;2023-03-20T10:45:45;14.60;85.00
7562;DHT22;3822;48.784;9.174;2023-03-20T10:48:29;14.60;85.30
7562;DHT22;3822;48.784;9.174;2023-03-20T10:50:59;14.60;85.50
7562;DHT22;3822;48.784;9.174;2023-03-20T10:53:29;14.50;85.60
7562;DHT22;3822;48.784;9.174;2023-03-20T10:56:41;14.50;85.70
7562;DHT22;3822;48.784;9.174;2023-03-20T10:59:06;14.50;85.90
7562;DHT22;3822;48.784;9.174;2023-03-20T11:01:35;14.50;86.00
7562;DHT22;3822;48.784;9.174;2023-03-20T11:04:02;14.50;86.10
7562;DHT22;3822;48.784;9.174;2023-03-20T11:06:32;14.50;86.00
7562;DHT22;3822;48.784;9.174;2023-03-20T11:09:09;14.50;85.90
7562;DHT22;3822;48.784;9.174;2023-03-20T11:11:59;14.50;85.80
7562;DHT22;3822;48.784;9.174;2023-03-20T11:14:36;14.50;85.80
7562;DHT22;3822;48.784;9.174;2023-03-20T11:17:04;14.50;85.90
7562;DHT22;3822;48.784;9.174;2023-03-20T11:19:32;14.50;86.00
7562;DHT22;3822;48.784;9.174;2023-03-20T11:22:06;14.50;86.20
7562;DHT22;3822;48.784;9.174;2023-03-20T11:27:05;14.50;86.50
7562;DHT22;3822;48.784;9.174;2023-03-20T11:29:33;14.50;86.60
7562;DHT22;3822;48.784;9.174;2023-03-20T11:32:04;14.40;86.50
7562;DHT22;3822;48.784;9.174;2023-03-20T11:34:36;14.50;86.70
7562;DHT22;3822;48.784;9.174;2023-03-20T11:37:05;14.40;86.60
7562;DHT22;3822;48.784;9.174;2023-03-20T11:39:38;14.40;86.50
7562;DHT22;3822;48.784;9.174;2023-03-20T11:42:35;14.40;86.30
7562;DHT22;3822;48.784;9.174;2023-03-20T11:45:03;14.40;86.30
7562;DHT22;3822;48.784;9.174;2023-03-20T11:47:33;14.40;86.20
7562;DHT22;3822;48.784;9.174;2023-03-20T11:50:01;14.30;86.10
7562;DHT22;3822;48.784;9.174;2023-03-20T11:52:31;14.40;86.20
7562;DHT22;3822;48.784;9.174;2023-03-20T11:55:00;14.40;86.20
7562;DHT22;3822;48.784;9.174;2023-03-20T11:57:36;14.40;86.30
7562;DHT22;3822;48.784;9.174;2023-03-20T12:00:25;14.40;86.40
7562;DHT22;3822;48.784;9.174;2023-03-20T12:02:51;14.40;86.40
7562;DHT22;3822;48.784;9.174;2023-03-20T12:08:20;14.40;86.00
7562;DHT22;3822;48.784;9.174;2023-03-20T12:10:50;14.40;85.80
7562;DHT22;3822;48.784;9.174;2023-03-20T12:13:21;14.50;85.70
7562;DHT22;3822;48.784;9.174;2023-03-20T12:15:53;14.50;85.50
7562;DHT22;3822;48.784;9.174;2023-03-20T12:23:39;14.60;84.90
7562;DHT22;3822;48.784;9.174;2023-03-20T12:26:14;14.60;84.80
7562;DHT22;3822;48.784;9.174;2023-03-20T12:31:19;14.70;84.80
7562;DHT22;3822;48.784;9.174;2023-03-20T12:36:27;14.80;84.70
7562;DHT22;3822;48.784;9.174;2023-03-20T12:38:58;14.80;84.40
7562;DHT22;3822;48.784;9.174;2023-03-20T12:41:28;14.80;84.00
7562;DHT22;3822;48.784;9.174;2023-03-20T12:46:29;14.90;84.00
7562;DHT22;3822;48.784;9.174;2023-03-20T12:57:15;15.10;83.30
7562;DHT22;3822;48.784;9.174;2023-03-20T12:59:50;15.10;83.10
7562;DHT22;3822;48.784;9.174;2023-03-20T13:02:28;15.20;83.00
7562;DHT22;3822;48.784;9.174;2023-03-20T13:07:48;15.20;82.60
7562;DHT22;3822;48.784;9.174;2023-03-20T13:10:38;15.30;82.40
7562;DHT22;3822;48.784;9.174;2023-03-20T13:24:51;15.20;80.40
7562;DHT22;3822;48.784;9.174;2023-03-20T13:27:52;15.30;80.70
7562;DHT22;3822;48.784;9.174;2023-03-20T13:35:50;15.30;80.40
7562;DHT22;3822;48.784;9.174;2023-03-20T13:38:25;15.30;80.60
7562;DHT22;3822;48.784;9.174;2023-03-20T13:40:59;15.40;80.40
7562;DHT22;3822;48.784;9.174;2023-03-20T13:46:02;15.30;79.50
7562;DHT22;3822;48.784;9.174;2023-03-20T13:48:42;15.40;80.00
7562;DHT22;3822;48.784;9.174;2023-03-20T13:56:52;15.50;79.80
7562;DHT22;3822;48.784;9.174;2023-03-20T13:59:31;16.70;80.80
7562;DHT22;3822;48.784;9.174;2023-03-20T14:04:28;15.60;79.70
7562;DHT22;3822;48.784;9.174;2023-03-20T14:06:56;15.60;79.70
7562;DHT22;3822;48.784;9.174;2023-03-20T14:09:24;15.60;79.70
7562;DHT22;3822;48.784;9.174;2023-03-20T14:11:55;16.80;80.80
7562;DHT22;3822;48.784;9.174;2023-03-20T14:14:31;15.70;79.60
7562;DHT22;3822;48.784;9.174;2023-03-20T14:17:18;15.80;79.50
7562;DHT22;3822;48.784;9.174;2023-03-20T14:19:52;15.80;79.30
7562;DHT22;3822;48.784;9.174;2023-03-20T14:22:25;15.80;79.00
7562;DHT22;3822;48.784;9.174;2023-03-20T14:24:54;15.80;78.90
7562;DHT22;3822;48.784;9.174;2023-03-20T14:27:24;15.80;78.90
7562;DHT22;3822;48.784;9.174;2023-03-20T14:29:52;15.80;78.80
7562;DHT22;3822;48.784;9.174;2023-03-20T14:34:45;16.00;78.70
7562;DHT22;3822;48.784;9.174;2023-03-20T14:37:29;15.80;78.40
7562;DHT22;3822;48.784;9.174;2023-03-20T14:40:05;15.80;78.20
7562;DHT22;3822;48.784;9.174;2023-03-20T14:42:56;15.80;78.20
7562;DHT22;3822;48.784;9.174;2023-03-20T14:48:30;15.80;78.30
7562;DHT22;3822;48.784;9.174;2023-03-20T14:51:03;15.80;78.20
7562;DHT22;3822;48.784;9.174;2023-03-20T14:53:31;15.80;78.10
7562;DHT22;3822;48.784;9.174;2023-03-20T14:56:05;15.80;78.10
7562;DHT22;3822;48.784;9.174;2023-03-20T15:01:23;15.90;78.20
7562;DHT22;3822;48.784;9.174;2023-03-20T15:06:51;15.90;78.20
7562;DHT22;3822;48.784;9.174;2023-03-20T15:09:22;15.90;78.20
7562;DHT22;3822;48.784;9.174;2023-03-20T15:11:50;15.90;78.10
7562;DHT22;3822;48.784;9.174;2023-03-20T15:14:23;15.90;77.70
7562;DHT22;3822;48.784;9.174;2023-03-20T15:16:58;15.90;77.60
7562;DHT22;3822;48.784;9.174;2023-03-20T15:19:25;16.00;77.60
7562;DHT22;3822;48.784;9.174;2023-03-20T15:21:54;15.90;77.60
7562;DHT22;3822;48.784;9.174;2023-03-20T15:24:30;15.90;77.60
7562;DHT22;3822;48.784;9.174;2023-03-20T15:26:57;15.90;77.60
7562;DHT22;3822;48.784;9.174;2023-03-20T15:29:25;16.00;77.70
7562;DHT22;3822;48.784;9.174;2023-03-20T15:31:54;16.00;77.50
7562;DHT22;3822;48.784;9.174;2023-03-20T15:34:26;16.00;77.50
7562;DHT22;3822;48.784;9.174;2023-03-20T15:36:57;16.00;77.40
7562;DHT22;3822;48.784;9.174;2023-03-20T15:39:26;16.00;77.30
7562;DHT22;3822;48.784;9.174;2023-03-20T15:41:56;16.00;77.30
7562;DHT22;3822;48.784;9.174;2023-03-20T15:44:37;16.00;77.00
7562;DHT22;3822;48.784;9.174;2023-03-20T15:49:36;16.00;76.90
7562;DHT22;3822;48.784;9.174;2023-03-20T15:52:07;16.10;77.00
7562;DHT22;3822;48.784;9.174;2023-03-20T15:54:47;16.10;76.90
7562;DHT22;3822;48.784;9.174;2023-03-20T15:57:18;16.10;76.70
7562;DHT22;3822;48.784;9.174;2023-03-20T15:59:50;16.10;76.30
7562;DHT22;3822;48.784;9.174;2023-03-20T16:02:16;16.00;75.00
7562;DHT22;3822;48.784;9.174;2023-03-20T16:04:47;15.90;74.00
7562;DHT22;3822;48.784;9.174;2023-03-20T16:07:28;15.90;73.80
7562;DHT22;3822;48.784;9.174;2023-03-20T16:09:57;15.80;73.40
7562;DHT22;3822;48.784;9.174;2023-03-20T16:12:24;15.70;72.90
7562;DHT22;3822;48.784;9.174;2023-03-20T16:14:51;15.60;72.60
7562;DHT22;3822;48.784;9.174;2023-03-20T16:17:19;15.60;72.60
7562;DHT22;3822;48.784;9.174;2023-03-20T16:19:46;15.50;72.60
7562;DHT22;3822;48.784;9.174;2023-03-20T16:22:18;15.50;72.60
7562;DHT22;3822;48.784;9.174;2023-03-20T16:24:49;15.50;72.50
7562;DHT22;3822;48.784;9.174;2023-03-20T16:27:21;15.40;72.70
7562;DHT22;3822;48.784;9.174;2023-03-20T16:29:50;15.40;72.40
7562;DHT22;3822;48.784;9.174;2023-03-20T16:32:20;15.40;72.30
7562;DHT22;3822;48.784;9.174;2023-03-20T16:34:53;15.40;72.30
7562;DHT22;3822;48.784;9.174;2023-03-20T16:37:31;15.40;72.30
7562;DHT22;3822;48.784;9.174;2023-03-20T16:42:48;15.30;72.40
7562;DHT22;3822;48.784;9.174;2023-03-20T16:45:29;15.30;72.40
7562;DHT22;3822;48.784;9.174;2023-03-20T16:50:40;15.40;72.30
7562;DHT22;3822;48.784;9.174;2023-03-20T16:53:11;15.20;72.00
7562;DHT22;3822;48.784;9.174;2023-03-20T16:55:44;15.30;71.80
7562;DHT22;3822;48.784;9.174;2023-03-20T16:58:22;15.30;71.90
7562;DHT22;3822;48.784;9.174;2023-03-20T17:03:27;15.30;71.80
7562;DHT22;3822;48.784;9.174;2023-03-20T17:05:57;15.30;71.60
7562;DHT22;3822;48.784;9.174;2023-03-20T17:08:31;15.20;71.10
7562;DHT22;3822;48.784;9.174;2023-03-20T17:11:08;15.20;71.10
7562;DHT22;3822;48.784;9.174;2023-03-20T17:13:37;15.10;70.90
7562;DHT22;3822;48.784;9.174;2023-03-20T17:16:04;15.10;71.00
7562;DHT22;3822;48.784;9.174;2023-03-20T17:18:30;15.10;70.90
7562;DHT22;3822;48.784;9.174;2023-03-20T17:21:02;15.10;70.70
7562;DHT22;3822;48.784;9.174;2023-03-20T17:23:29;15.10;70.60
7562;DHT22;3822;48.784;9.174;2023-03-20T17:25:56;15.00;70.60
7562;DHT22;3822;48.784;9.174;2023-03-20T17:28:23;15.00;70.60
7562;DHT22;3822;48.784;9.174;2023-03-20T17:30:57;15.00;70.80
7562;DHT22;3822;48.784;9.174;2023-03-20T17:33:25;14.90;70.80
7562;DHT22;3822;48.784;9.174;2023-03-20T17:35:53;14.90;70.80
7562;DHT22;3822;48.784;9.174;2023-03-20T17:38:22;14.90;70.80
7562;DHT22;3822;48.784;9.174;2023-03-20T17:40:49;14.90;70.80
7562;DHT22;3822;48.784;9.174;2023-03-20T17:43:17;14.90;70.70
7562;DHT22;3822;48.784;9.174;2023-03-20T17:45:44;14.80;70.60
7562;DHT22;3822;48.784;9.174;2023-03-20T17:48:13;14.80;70.80
7562;DHT22;3822;48.784;9.174;2023-03-20T17:50:41;14.70;70.80
7562;DHT22;3822;48.784;9.174;2023-03-20T17:53:13;14.70;71.10
7562;DHT22;3822;48.784;9.174;2023-03-20T17:55:41;14.60;71.20
7562;DHT22;3822;48.784;9.174;2023-03-20T17:58:12;14.60;71.40
7562;DHT22;3822;48.784;9.174;2023-03-20T18:00:39;14.60;71.50
7562;DHT22;3822;48.784;9.174;2023-03-20T18:03:05;14.60;71.60
7562;DHT22;3822;48.784;9.174;2023-03-20T18:05:32;14.60;71.70
7562;DHT22;3822;48.784;9.174;2023-03-20T18:07:59;14.60;71.80
7562;DHT22;3822;48.784;9.174;2023-03-20T18:10:27;14.60;71.90
7562;DHT22;3822;48.784;9.174;2023-03-20T18:12:58;14.60;71.90
7562;DHT22;3822;48.784;9.174;2023-03-20T18:15:24;14.50;72.00
7562;DHT22;3822;48.784;9.174;2023-03-20T18:17:51;14.50;72.10
7562;DHT22;3822;48.784;9.174;2023-03-20T18:20:29;14.50;72.30
7562;DHT22;3822;48.784;9.174;2023-03-20T18:23:00;14.50;72.50
7562;DHT22;3822;48.784;9.174;2023-03-20T18:25:26;14.50;72.70
7562;DHT22;3822;48.784;9.174;2023-03-20T18:27:54;14.60;73.00
7562;DHT22;3822;48.784;9.174;2023-03-20T18:30:22;14.60;73.20
7562;DHT22;3822;48.784;9.174;2023-03-20T18:32:50;14.50;73.40
7562;DHT22;3822;48.784;9.174;2023-03-20T18:35:17;14.60;73.70
7562;DHT22;3822;48.784;9.174;2023-03-20T18:37:43;14.60;73.90
7562;DHT22;3822;48.784;9.174;2023-03-20T18:40:20;14.50;73.90
7562;DHT22;3822;48.784;9.174;2023-03-20T18:42:51;14.60;74.20
7562;DHT22;3822;48.784;9.174;2023-03-20T18:45:19;14.50;74.30